Vernon Hill, Virginia
Current Conditions -  °F | °C
As of 3:15 PM on Thursday 18 Dec 2014 (Local Time) from KW78 Reporting Station
Overcast Overcast  
Wind Chill: 44°   Ceiling: 10000
Heat Index: 44°   Visibility: 10mi
Dew Point: 21°   Wind: 3mph
Humidity: 39%   Direction: 320°NW
Pressure: 30.09"   Gusts: NA
Location:  36.76°N, 79.1°W
Report Text: KW78 182015Z AUTO 32003KT 10SM OVC100 07/M06 A3009 RMK AO1 T00691061
Loading
Personal Weather Stations






























Interactive Weather Map New forecast layout! Learn more

10-Day Weather Forecast

Advertisements
Track Severe Weather on mobile